Terminal Aerodrome Forecast
Issued by NWS

Home | Current Version | Previous Version | Text Only | Print | Product List | Glossary On
Versions: 1 2 3 4 5 6 7 8 9 10 11 12 13 14
848
FTUS45 KABQ 232329
TAFSAF
TAF
KSAF 232329Z 2400/2424 27012G22KT P6SM SCT120
     FM240200 31008KT P6SM SKC
     FM240600 02006KT P6SM SKC
     FM241700 21010KT P6SM SKC
     FM242000 21012G19KT P6SM FEW250=

USA.gov is the U.S. government's official web portal to all federal, state and local government web resources and services.